Time;durP1;ratioP1;P1;durP2;ratioP2;P2;SDS_P1;SDS_P2;PMS_P1;PMS_P2;Temp;Humidity;BMP_temperature;BMP_pressure;BME280_temperature;BME280_humidity;BME280_pressure;Samples;Min_cycle;Max_cycle;Signal;HPM_P1;HPM_P2
2022/07/09 00:02:11;;;;;;;9.93;4.20;;;14.80;1.00;;;;;;5068874;28;20403;-53
2022/07/09 00:04:37;;;;;;;9.77;3.83;;;14.80;1.00;;;;;;5066858;28;21208;-53
2022/07/09 00:07:03;;;;;;;8.97;3.60;;;14.80;1.00;;;;;;5066599;28;20469;-53
2022/07/09 00:09:28;;;;;;;7.55;3.50;;;14.80;1.00;;;;;;5069477;28;20475;-53
2022/07/09 00:11:54;;;;;;;8.73;4.03;;;14.90;1.00;;;;;;5068410;28;20422;-53
2022/07/09 00:14:20;;;;;;;8.50;3.80;;;14.80;1.00;;;;;;5067095;28;20439;-53
2022/07/09 00:16:46;;;;;;;9.13;4.22;;;14.80;1.00;;;;;;5071620;28;20410;-53
2022/07/09 00:19:11;;;;;;;12.73;3.97;;;14.80;1.00;;;;;;5073607;28;20380;-53
2022/07/09 00:21:37;;;;;;;8.57;3.70;;;14.80;1.00;;;;;;5071095;28;21273;-53
2022/07/09 00:24:02;;;;;;;9.05;4.00;;;14.80;1.00;;;;;;5071947;28;20394;-54
2022/07/09 00:26:28;;;;;;;11.97;3.87;;;14.80;1.00;;;;;;5071636;28;20411;-54
2022/07/09 00:28:53;;;;;;;12.00;4.17;;;14.80;1.00;;;;;;5072364;28;20442;-54
2022/07/09 00:31:19;;;;;;;7.47;4.05;;;14.90;99.90;;;;;;5069344;28;20853;-54
2022/07/09 00:33:45;;;;;;;10.80;4.40;;;14.90;99.90;;;;;;5071408;28;20407;-55
2022/07/09 00:36:10;;;;;;;8.10;3.63;;;14.90;99.90;;;;;;5071537;28;20870;-55
2022/07/09 00:38:36;;;;;;;9.30;3.80;;;14.80;99.90;;;;;;5070644;28;20407;-53
2022/07/09 00:41:02;;;;;;;8.68;3.30;;;14.80;99.90;;;;;;5071632;28;20518;-53
2022/07/09 00:43:27;;;;;;;9.50;3.83;;;14.80;99.90;;;;;;5070922;28;20482;-53
2022/07/09 00:45:53;;;;;;;8.52;3.53;;;14.80;1.00;;;;;;5071262;28;20388;-53
2022/07/09 00:48:19;;;;;;;12.27;4.50;;;14.80;1.00;;;;;;5071455;28;20391;-54
2022/07/09 00:50:46;;;;;;;7.63;3.60;;;14.80;1.00;;;;;;5073985;28;20398;-53
2022/07/09 00:53:14;;;;;;;8.80;4.10;;;14.70;1.00;;;;;;5070883;28;20418;-52
2022/07/09 00:55:40;;;;;;;9.07;4.22;;;14.60;1.00;;;;;;5071165;28;21001;-53
2022/07/09 00:58:08;;;;;;;12.85;4.45;;;14.60;1.00;;;;;;5070538;28;20419;-53
2022/07/09 01:00:35;;;;;;;11.05;4.57;;;14.50;1.00;;;;;;5070417;28;20388;-54
2022/07/09 01:03:01;;;;;;;9.27;4.60;;;14.40;1.00;;;;;;5072210;28;20454;-55
2022/07/09 01:05:26;;;;;;;12.00;4.10;;;14.30;1.00;;;;;;5085279;28;20394;-53
2022/07/09 01:07:53;;;;;;;9.77;4.50;;;14.30;19.20;;;;;;5082740;28;20405;-53
2022/07/09 01:10:18;;;;;;;11.40;4.38;;;14.20;99.90;;;;;;5072201;28;20449;-56
2022/07/09 01:12:45;;;;;;;11.10;4.57;;;14.20;99.90;;;;;;5072182;28;20850;-53
2022/07/09 01:15:10;;;;;;;8.60;4.40;;;14.30;44.40;;;;;;5084402;28;20411;-52
2022/07/09 01:17:42;;;;;;;12.82;4.57;;;14.20;99.90;;;;;;5076783;28;20421;-52
2022/07/09 01:20:08;;;;;;;9.68;4.88;;;14.20;99.90;;;;;;5074156;28;20872;-52
2022/07/09 01:22:35;;;;;;;11.02;4.20;;;14.20;99.90;;;;;;5089918;28;20416;-52
2022/07/09 01:25:04;;;;;;;10.88;4.47;;;14.20;99.90;;;;;;5084654;28;20396;-52
2022/07/09 01:27:30;;;;;;;8.32;4.20;;;14.20;99.90;;;;;;5072215;28;20430;-52
2022/07/09 01:29:56;;;;;;;10.15;4.20;;;14.20;99.90;;;;;;5080476;28;20425;-53
2022/07/09 01:32:22;;;;;;;12.73;5.00;;;14.10;99.90;;;;;;5087504;28;20855;-53
2022/07/09 01:34:47;;;;;;;10.93;4.50;;;14.10;99.90;;;;;;5089336;28;20731;-52
2022/07/09 01:37:13;;;;;;;11.35;4.47;;;14.10;99.90;;;;;;5085075;28;20390;-52
2022/07/09 01:39:49;;;;;;;11.50;4.60;;;14.10;99.90;;;;;;5075861;28;20753;-52
2022/07/09 01:42:16;;;;;;;11.50;4.60;;;14.00;1.00;;;;;;5087995;28;20386;-54
2022/07/09 01:44:42;;;;;;;9.25;4.80;;;13.90;99.90;;;;;;5073127;28;20414;-53
2022/07/09 01:47:08;;;;;;;10.05;4.30;;;13.90;91.60;;;;;;5079030;28;20424;-58
2022/07/09 01:49:33;;;;;;;9.77;4.60;;;13.80;35.40;;;;;;5070453;28;20888;-53
2022/07/09 01:51:59;;;;;;;8.70;4.30;;;13.80;99.90;;;;;;5079182;28;20443;-53
2022/07/09 01:54:24;;;;;;;10.70;4.30;;;13.80;99.90;;;;;;5080297;28;20423;-53
2022/07/09 01:56:50;;;;;;;9.10;4.70;;;13.80;99.90;;;;;;5071333;28;20404;-53
2022/07/09 01:59:16;;;;;;;12.63;5.40;;;13.60;1.00;;;;;;5075310;28;20419;-55
2022/07/09 02:01:42;;;;;;;15.82;5.28;;;13.60;1.00;;;;;;5085343;28;20699;-52
2022/07/09 02:04:08;;;;;;;13.05;5.00;;;13.60;1.00;;;;;;5076682;28;20489;-52
2022/07/09 02:06:33;;;;;;;11.00;4.47;;;13.70;99.90;;;;;;5078773;28;20484;-52
2022/07/09 02:08:59;;;;;;;11.80;5.10;;;13.70;1.00;;;;;;5082392;28;20409;-52
2022/07/09 02:11:25;;;;;;;8.35;4.10;;;13.60;1.00;;;;;;5072921;28;20416;-52
2022/07/09 02:13:50;;;;;;;9.83;4.97;;;13.60;1.00;;;;;;5083241;28;20434;-52
2022/07/09 02:16:34;;;;;;;10.90;5.03;;;13.60;53.30;;;;;;5071223;28;20906;-53
2022/07/09 02:19:00;;;;;;;10.70;4.72;;;13.70;1.00;;;;;;5078087;28;20395;-52
2022/07/09 02:21:25;;;;;;;9.80;4.10;;;13.60;1.00;;;;;;5078481;28;20392;-52
2022/07/09 02:23:53;;;;;;;12.27;4.40;;;13.60;1.00;;;;;;5078315;28;20394;-53
2022/07/09 02:26:18;;;;;;;11.55;4.70;;;13.60;1.00;;;;;;5075498;28;20419;-55
2022/07/09 02:28:44;;;;;;;12.20;4.50;;;13.60;99.90;;;;;;5082982;28;20403;-52
2022/07/09 02:31:10;;;;;;;9.53;4.53;;;13.60;1.00;;;;;;5070043;28;20390;-53
2022/07/09 02:33:35;;;;;;;9.00;4.30;;;13.60;1.00;;;;;;5084348;28;20434;-54
2022/07/09 02:36:01;;;;;;;10.33;4.73;;;13.70;99.90;;;;;;5082591;28;20396;-55
2022/07/09 02:38:27;;;;;;;10.87;4.57;;;13.80;99.90;;;;;;5085606;28;20860;-54
2022/07/09 02:40:52;;;;;;;10.77;4.60;;;13.80;63.90;;;;;;5069383;28;20476;-53
2022/07/09 02:43:18;;;;;;;10.10;4.63;;;13.70;72.10;;;;;;5078106;28;20445;-56
2022/07/09 02:45:43;;;;;;;9.50;4.43;;;13.70;46.40;;;;;;5088971;28;20857;-53
2022/07/09 02:48:09;;;;;;;10.93;4.57;;;13.70;99.90;;;;;;5088265;28;20382;-56
2022/07/09 02:50:35;;;;;;;9.90;4.50;;;13.70;99.90;;;;;;5071608;28;20926;-56
2022/07/09 02:53:00;;;;;;;8.57;4.40;;;13.70;57.70;;;;;;5071329;28;20401;-55
2022/07/09 02:55:26;;;;;;;10.02;4.63;;;13.70;99.90;;;;;;5069570;28;20419;-52
2022/07/09 02:57:51;;;;;;;10.10;4.70;;;13.70;99.90;;;;;;5079671;28;20394;-52
2022/07/09 03:00:17;;;;;;;11.00;4.70;;;13.70;1.00;;;;;;5069894;28;20379;-52
2022/07/09 03:02:43;;;;;;;9.90;4.53;;;13.70;99.90;;;;;;5075994;28;20911;-52
2022/07/09 03:05:09;;;;;;;10.57;5.00;;;13.70;99.90;;;;;;5075954;28;20706;-53
2022/07/09 03:07:34;;;;;;;10.20;4.70;;;13.70;99.90;;;;;;5068235;28;20678;-53
2022/07/09 03:10:00;;;;;;;12.13;5.15;;;13.70;99.90;;;;;;5071828;28;20808;-53
2022/07/09 03:12:25;;;;;;;10.83;5.03;;;13.60;1.00;;;;;;5078182;28;20382;-56
2022/07/09 03:14:51;;;;;;;9.50;4.70;;;13.60;1.00;;;;;;5073555;28;20416;-55
2022/07/09 03:17:17;;;;;;;10.57;4.63;;;13.50;1.00;;;;;;5075680;28;20405;-52
2022/07/09 03:19:42;;;;;;;10.70;4.60;;;13.50;1.00;;;;;;5076422;28;20395;-53
2022/07/09 03:22:08;;;;;;;12.87;4.93;;;13.60;1.00;;;;;;5086635;28;20394;-53
2022/07/09 03:24:34;;;;;;;11.10;4.18;;;13.50;1.00;;;;;;5069705;28;20507;-52
2022/07/09 03:26:59;;;;;;;13.27;5.00;;;13.60;1.00;;;;;;5073847;28;20411;-52
2022/07/09 03:29:25;;;;;;;9.75;4.60;;;13.60;1.00;;;;;;5077942;28;20406;-53
2022/07/09 03:31:50;;;;;;;10.35;4.70;;;13.50;1.00;;;;;;5079934;28;20571;-52
2022/07/09 03:34:16;;;;;;;10.70;5.00;;;13.40;99.90;;;;;;5081262;28;20434;-53
2022/07/09 03:36:42;;;;;;;12.23;5.10;;;13.40;99.90;;;;;;5078967;28;20506;-53
2022/07/09 03:39:07;;;;;;;11.93;4.50;;;13.40;1.00;;;;;;5081373;28;20395;-52
2022/07/09 03:41:33;;;;;;;12.00;5.03;;;13.40;1.00;;;;;;5075167;28;20390;-52
2022/07/09 03:43:59;;;;;;;9.70;4.57;;;13.30;1.00;;;;;;5073406;28;20495;-53
2022/07/09 03:46:24;;;;;;;10.80;4.60;;;13.30;99.90;;;;;;5082780;28;20398;-53
2022/07/09 03:48:50;;;;;;;9.82;4.80;;;13.30;99.90;;;;;;5088130;28;20382;-52
2022/07/09 03:51:16;;;;;;;12.07;5.28;;;13.30;99.90;;;;;;5075042;28;20461;-52
2022/07/09 03:53:42;;;;;;;9.83;5.53;;;13.30;99.90;;;;;;5085662;28;20401;-52
2022/07/09 03:56:07;;;;;;;12.20;5.20;;;13.40;2.90;;;;;;5081782;28;20403;-54
2022/07/09 03:58:33;;;;;;;10.80;4.20;;;13.60;1.00;;;;;;5083831;28;20766;-54
2022/07/09 04:00:59;;;;;;;11.73;4.72;;;13.60;99.90;;;;;;5074838;28;20387;-54
2022/07/09 04:03:25;;;;;;;12.20;5.00;;;13.70;66.50;;;;;;5075588;28;20802;-56
2022/07/09 04:05:50;;;;;;;11.23;4.68;;;13.60;99.90;;;;;;5068044;28;20383;-56
2022/07/09 04:08:16;;;;;;;10.87;4.90;;;13.70;99.90;;;;;;5081350;28;20382;-56
2022/07/09 04:10:42;;;;;;;12.77;5.28;;;13.80;1.00;;;;;;5069721;28;20406;-55
2022/07/09 04:13:07;;;;;;;9.73;4.38;;;13.80;99.90;;;;;;5077462;28;20399;-54
2022/07/09 04:15:33;;;;;;;10.63;5.00;;;13.70;1.00;;;;;;5070020;28;20558;-53
2022/07/09 04:17:58;;;;;;;9.20;4.53;;;13.80;1.00;;;;;;5077130;28;20443;-53
2022/07/09 04:20:25;;;;;;;8.93;4.80;;;13.70;99.90;;;;;;5071363;28;20931;-54
2022/07/09 04:22:51;;;;;;;10.85;4.72;;;13.80;1.00;;;;;;5076068;28;20391;-53
2022/07/09 04:25:17;;;;;;;11.93;4.78;;;13.80;1.00;;;;;;5078960;28;20409;-52
2022/07/09 04:27:43;;;;;;;11.98;5.10;;;13.80;1.00;;;;;;5068205;28;20902;-52
2022/07/09 04:30:10;;;;;;;11.00;4.90;;;13.80;1.00;;;;;;5081480;28;20386;-53
2022/07/09 04:32:36;;;;;;;9.70;4.60;;;14.00;99.90;;;;;;5079839;28;20480;-53
2022/07/09 04:35:02;;;;;;;9.02;4.60;;;14.20;1.00;;;;;;5058765;28;20743;-53
2022/07/09 04:37:28;;;;;;;9.70;4.80;;;14.40;95.30;;;;;;5068989;28;20390;-54
2022/07/09 04:39:53;;;;;;;13.60;4.95;;;14.50;1.00;;;;;;5069672;28;20399;-53
2022/07/09 04:42:20;;;;;;;11.17;4.87;;;14.70;1.00;;;;;;5068151;28;20382;-53
2022/07/09 04:44:46;;;;;;;9.00;4.10;;;14.80;99.90;;;;;;5070449;28;20403;-53
2022/07/09 04:47:12;;;;;;;10.00;4.57;;;14.80;99.90;;;;;;5066773;28;20398;-53
2022/07/09 04:49:38;;;;;;;10.10;4.40;;;14.90;99.90;;;;;;5066994;28;20391;-53
2022/07/09 04:52:04;;;;;;;9.40;4.50;;;15.00;99.90;;;;;;5067736;28;20407;-53
2022/07/09 04:54:30;;;;;;;9.20;4.70;;;15.20;99.90;;;;;;5065983;28;20883;-53
2022/07/09 04:56:55;;;;;;;12.15;4.68;;;15.20;99.90;;;;;;5066979;28;20452;-53
2022/07/09 04:59:21;;;;;;;11.60;4.47;;;15.30;99.90;;;;;;5067845;28;20390;-56
2022/07/09 05:01:48;;;;;;;10.40;4.20;;;15.40;99.90;;;;;;5068006;28;20888;-53
2022/07/09 05:04:13;;;;;;;9.17;4.40;;;15.70;99.90;;;;;;5072232;28;20402;-53
2022/07/09 05:06:40;;;;;;;11.18;4.85;;;15.90;99.90;;;;;;5069259;28;20395;-53
2022/07/09 05:09:05;;;;;;;8.30;4.07;;;16.40;26.40;;;;;;5070877;28;20418;-53
2022/07/09 05:11:32;;;;;;;11.80;4.95;;;16.70;1.00;;;;;;5069530;28;20736;-53
2022/07/09 05:13:58;;;;;;;10.45;4.10;;;17.20;1.00;;;;;;5071218;28;20487;-53
2022/07/09 05:16:23;;;;;;;9.00;5.00;;;17.40;1.00;;;;;;5070873;28;20868;-56
2022/07/09 05:18:49;;;;;;;10.00;4.68;;;17.70;1.00;;;;;;5072280;28;20474;-53
2022/07/09 05:21:15;;;;;;;8.95;4.63;;;18.00;1.00;;;;;;5071200;28;20494;-53
2022/07/09 05:23:40;;;;;;;11.13;4.73;;;18.50;1.00;;;;;;5072834;28;20503;-54
2022/07/09 05:26:06;;;;;;;9.20;4.10;;;19.60;99.90;;;;;;5069471;28;20929;-54
2022/07/09 05:28:32;;;;;;;10.80;4.20;;;20.70;99.90;;;;;;5065213;28;20501;-54
2022/07/09 05:30:58;;;;;;;10.23;5.20;;;21.60;99.90;;;;;;5066235;28;20384;-54
2022/07/09 05:33:23;;;;;;;11.15;4.72;;;22.50;99.90;;;;;;5073999;28;20414;-57
2022/07/09 05:35:49;;;;;;;12.67;4.83;;;23.10;99.90;;;;;;5071955;28;20399;-54
2022/07/09 05:38:15;;;;;;;8.20;4.60;;;23.60;99.90;;;;;;5070954;28;20442;-55
2022/07/09 05:40:40;;;;;;;8.47;4.80;;;23.70;99.90;;;;;;5078227;28;20389;-54
2022/07/09 05:43:06;;;;;;;12.63;5.20;;;24.10;99.90;;;;;;5086304;28;20382;-54
2022/07/09 05:45:32;;;;;;;9.03;4.67;;;24.60;99.90;;;;;;5084869;28;20528;-55
2022/07/09 05:47:57;;;;;;;11.00;4.90;;;25.10;99.90;;;;;;5082450;28;20391;-54
2022/07/09 05:50:23;;;;;;;9.70;5.23;;;25.30;99.90;;;;;;5079919;28;20409;-57
2022/07/09 05:52:49;;;;;;;10.00;5.60;;;25.40;99.90;;;;;;5085478;28;20386;-55
2022/07/09 05:55:15;;;;;;;11.07;5.90;;;25.50;99.90;;;;;;5082229;28;20440;-55
2022/07/09 05:57:40;;;;;;;9.48;5.22;;;25.90;99.90;;;;;;5074382;28;20528;-54
2022/07/09 06:00:07;;;;;;;11.02;5.88;;;26.90;99.90;;;;;;5073769;28;20483;-54
2022/07/09 06:02:33;;;;;;;8.53;4.97;;;27.20;99.90;;;;;;5074885;28;20392;-55
2022/07/09 06:04:58;;;;;;;11.70;5.10;;;27.20;99.90;;;;;;5065636;28;20979;-55
2022/07/09 06:07:24;;;;;;;10.73;5.53;;;27.60;99.90;;;;;;5064370;28;20462;-57
2022/07/09 06:09:50;;;;;;;9.17;5.20;;;28.30;99.90;;;;;;5080567;28;20393;-57
2022/07/09 06:12:15;;;;;;;10.97;5.50;;;27.30;99.90;;;;;;5083243;28;20406;-56
2022/07/09 06:14:41;;;;;;;9.00;5.40;;;26.80;99.90;;;;;;5076503;28;20884;-55
2022/07/09 06:17:07;;;;;;;9.20;5.40;;;27.10;99.90;;;;;;5080108;28;20385;-55
2022/07/09 06:19:37;;;;;;;10.13;6.65;;;28.00;99.90;;;;;;5069315;28;20387;-54
2022/07/09 06:22:03;;;;;;;12.02;5.82;;;28.90;99.90;;;;;;5070101;28;20404;-54
2022/07/09 06:24:29;;;;;;;9.52;7.07;;;28.40;99.90;;;;;;5068661;28;20387;-56
2022/07/09 06:26:56;;;;;;;10.10;6.60;;;29.20;99.90;;;;;;5067233;28;20396;-55
2022/07/09 06:29:22;;;;;;;9.95;5.90;;;29.60;99.90;;;;;;5069904;28;20473;-56
2022/07/09 06:31:47;;;;;;;11.00;6.25;;;29.20;99.90;;;;;;5066530;28;20841;-54
2022/07/09 06:34:13;;;;;;;8.57;5.93;;;29.40;99.90;;;;;;5065628;28;20403;-54
2022/07/09 06:36:41;;;;;;;9.82;5.60;;;29.10;99.90;;;;;;5067727;28;20384;-53
2022/07/09 06:41:52;;;;;;;8.13;4.40;;;27.80;99.90;;;;;;5066405;28;20612;-54
2022/07/09 06:44:18;;;;;;;8.90;5.18;;;27.20;99.90;;;;;;5073425;28;20567;-54
2022/07/09 06:46:44;;;;;;;8.25;4.40;;;26.70;99.90;;;;;;5066082;28;21028;-53
2022/07/09 06:49:09;;;;;;;9.02;4.70;;;26.00;99.90;;;;;;5069867;28;20405;-56
2022/07/09 06:51:35;;;;;;;10.30;5.07;;;25.90;99.90;;;;;;5087066;28;20390;-53
2022/07/09 06:54:00;;;;;;;11.03;4.67;;;26.50;99.90;;;;;;5088522;28;20418;-55
2022/07/09 06:56:26;;;;;;;8.83;4.20;;;27.40;99.90;;;;;;5076237;28;20384;-57
2022/07/09 06:58:52;;;;;;;10.40;4.40;;;27.40;99.90;;;;;;5066864;28;20459;-55
2022/07/09 07:01:17;;;;;;;8.53;4.40;;;27.00;99.90;;;;;;5054600;28;20461;-55
2022/07/09 07:03:43;;;;;;;6.68;3.47;;;27.60;99.90;;;;;;5068184;28;20450;-56
2022/07/09 07:06:08;;;;;;;8.23;5.43;;;29.00;99.90;;;;;;5068236;28;20384;-55
2022/07/09 07:08:34;;;;;;;8.90;5.20;;;29.80;99.90;;;;;;5067590;28;20411;-55
2022/07/09 07:11:00;;;;;;;9.37;6.03;;;31.20;99.90;;;;;;5068910;28;20386;-55
2022/07/09 07:13:25;;;;;;;9.87;8.27;;;32.70;99.90;;;;;;5067747;28;20710;-55
2022/07/09 07:15:51;;;;;;;9.55;3.10;;;32.40;99.90;;;;;;5068782;28;20896;-54
2022/07/09 07:18:17;;;;;;;8.50;3.10;;;32.00;99.90;;;;;;5052838;28;20401;-56
2022/07/09 07:20:45;;;;;;;9.53;3.40;;;31.80;99.90;;;;;;5065948;28;20739;-55
2022/07/09 07:23:11;;;;;;;7.82;2.80;;;31.90;99.90;;;;;;5067784;28;20448;-55
2022/07/09 07:25:37;;;;;;;10.20;3.40;;;32.60;99.90;;;;;;5064923;28;20415;-55
2022/07/09 07:28:04;;;;;;;9.20;5.47;;;31.60;99.90;;;;;;5063088;28;20908;-55
2022/07/09 07:30:32;;;;;;;7.93;4.80;;;31.20;99.90;;;;;;5064467;28;20384;-58
2022/07/09 07:32:58;;;;;;;8.13;4.83;;;30.80;99.90;;;;;;5068501;28;20380;-57
2022/07/09 07:35:24;;;;;;;9.43;4.85;;;30.30;99.90;;;;;;5066152;28;20428;-56
2022/07/09 07:37:50;;;;;;;7.20;4.55;;;30.50;99.90;;;;;;5064202;28;20483;-55
2022/07/09 07:40:16;;;;;;;7.93;4.70;;;31.30;99.90;;;;;;5065806;28;20406;-55
2022/07/09 07:42:41;;;;;;;8.48;4.50;;;31.50;99.90;;;;;;5061647;28;20869;-56
2022/07/09 07:45:08;;;;;;;10.25;5.00;;;31.20;99.90;;;;;;5068388;28;20426;-56
2022/07/09 07:47:33;;;;;;;9.57;5.13;;;31.90;99.90;;;;;;5069074;28;20382;-55
2022/07/09 07:49:59;;;;;;;13.77;5.78;;;33.10;99.90;;;;;;5068241;28;20398;-55
2022/07/09 07:52:25;;;;;;;9.88;5.80;;;34.10;99.90;;;;;;5065921;28;20887;-58
2022/07/09 07:54:51;;;;;;;8.02;5.85;;;34.20;99.90;;;;;;5067876;28;20423;-55
2022/07/09 07:57:16;;;;;;;7.33;5.37;;;33.70;99.90;;;;;;5068306;28;20396;-56
2022/07/09 07:59:42;;;;;;;9.68;5.78;;;34.40;99.90;;;;;;5066963;28;20407;-57
2022/07/09 08:02:08;;;;;;;8.37;4.80;;;35.00;99.90;;;;;;5068071;28;20471;-56
2022/07/09 08:04:33;;;;;;;7.53;5.50;;;35.80;99.90;;;;;;5067459;28;20898;-56
2022/07/09 08:06:59;;;;;;;8.20;5.30;;;36.40;99.90;;;;;;5068241;28;20414;-56
2022/07/09 08:09:24;;;;;;;9.13;5.20;;;36.40;99.90;;;;;;5067835;28;20903;-58
2022/07/09 08:11:50;;;;;;;10.57;5.30;;;36.80;99.90;;;;;;5067606;28;20466;-56
2022/07/09 08:14:16;;;;;;;7.17;5.27;;;37.40;99.90;;;;;;5068246;28;20396;-56
2022/07/09 08:16:41;;;;;;;6.95;5.00;;;37.40;99.90;;;;;;5067481;28;20505;-58
2022/07/09 08:19:07;;;;;;;9.03;6.07;;;37.50;99.90;;;;;;5068676;28;20388;-57
2022/07/09 08:21:32;;;;;;;9.35;7.60;;;37.70;99.90;;;;;;5067576;28;20384;-57
2022/07/09 08:24:00;;;;;;;8.23;5.67;;;38.90;99.90;;;;;;5068139;28;20391;-57
2022/07/09 08:26:26;;;;;;;9.60;7.80;;;38.80;99.90;;;;;;5067856;28;20419;-59
2022/07/09 08:28:52;;;;;;;11.07;5.28;;;38.70;99.90;;;;;;5067309;28;20849;-55
2022/07/09 08:31:19;;;;;;;8.80;5.25;;;38.50;99.90;;;;;;5068105;28;20388;-55
2022/07/09 08:33:46;;;;;;;9.05;6.60;;;37.80;99.90;;;;;;5066713;28;20402;-55
2022/07/09 08:36:12;;;;;;;8.50;3.00;;;37.60;99.90;;;;;;5068774;28;20456;-57
2022/07/09 08:38:37;;;;;;;8.38;3.00;;;37.10;99.90;;;;;;5071207;28;20383;-57
2022/07/09 08:41:06;;;;;;;7.15;2.85;;;36.60;99.90;;;;;;5071655;28;20442;-57
2022/07/09 08:43:37;;;;;;;8.60;3.20;;;36.50;99.90;;;;;;5070736;28;20470;-57
2022/07/09 08:46:04;;;;;;;8.25;2.92;;;37.60;99.90;;;;;;5071766;28;20383;-55
2022/07/09 08:48:34;;;;;;;10.27;3.42;;;37.90;99.90;;;;;;5070710;28;20489;-56
2022/07/09 08:51:01;;;;;;;8.70;6.60;;;38.00;99.90;;;;;;5071298;28;20483;-56
2022/07/09 08:53:27;;;;;;;9.43;4.68;;;38.10;99.90;;;;;;5070522;28;20375;-58
2022/07/09 08:55:54;;;;;;;9.90;5.70;;;37.80;99.90;;;;;;5070621;28;20426;-56
2022/07/09 08:58:20;;;;;;;8.50;4.50;;;37.50;99.90;;;;;;5070892;28;20382;-56
2022/07/09 09:00:48;;;;;;;9.68;5.30;;;36.70;99.90;;;;;;5070310;28;20380;-56
2022/07/09 09:03:13;;;;;;;8.40;7.00;;;36.10;99.90;;;;;;5070743;28;20388;-57
2022/07/09 09:05:39;;;;;;;8.67;6.87;;;35.90;99.90;;;;;;5070581;28;20448;-56
2022/07/09 09:08:19;;;;;;;8.60;5.50;;;35.20;99.90;;;;;;5070968;28;20383;-56
2022/07/09 09:10:46;;;;;;;8.40;6.43;;;34.80;99.90;;;;;;5070198;28;20390;-56
2022/07/09 09:13:15;;;;;;;7.60;5.80;;;33.40;99.90;;;;;;5071192;28;20849;-57
2022/07/09 09:15:41;;;;;;;8.32;5.80;;;32.20;99.90;;;;;;5070752;28;20627;-57
2022/07/09 09:18:07;;;;;;;8.60;5.80;;;32.40;99.90;;;;;;5071389;28;20388;-57
2022/07/09 09:20:32;;;;;;;7.60;4.90;;;33.20;99.90;;;;;;5070131;28;20733;-57
2022/07/09 09:23:02;;;;;;;7.47;5.20;;;34.10;99.90;;;;;;5071142;28;20415;-57
2022/07/09 09:25:28;;;;;;;7.13;5.40;;;34.60;99.90;;;;;;5070354;28;20416;-59
2022/07/09 09:27:58;;;;;;;7.30;5.00;;;36.50;99.90;;;;;;5071225;28;20427;-57
2022/07/09 09:30:26;;;;;;;7.65;4.95;;;35.40;99.90;;;;;;5070639;28;21292;-57
2022/07/09 09:32:59;;;;;;;7.72;5.00;;;35.80;99.90;;;;;;5070154;28;20721;-57
2022/07/09 09:35:27;;;;;;;8.00;5.20;;;35.10;99.90;;;;;;5071007;28;20412;-57
2022/07/09 09:37:53;;;;;;;8.07;5.10;;;35.90;99.90;;;;;;5070542;28;20379;-57
2022/07/09 09:40:19;;;;;;;6.50;4.75;;;35.20;99.90;;;;;;5070763;28;20464;-56
2022/07/09 09:42:45;;;;;;;8.60;5.53;;;33.90;99.90;;;;;;5070131;28;20376;-56
2022/07/09 09:45:15;;;;;;;6.10;4.87;;;34.10;99.90;;;;;;5069221;28;20387;-57
2022/07/09 09:47:51;;;;;;;9.93;5.10;;;34.30;99.90;;;;;;5069474;28;20833;-57
2022/07/09 09:50:21;;;;;;;7.22;4.55;;;34.50;99.90;;;;;;5070384;28;20415;-57
2022/07/09 09:52:48;;;;;;;6.85;4.68;;;35.20;99.90;;;;;;5069997;28;20853;-57
2022/07/09 09:55:14;;;;;;;9.07;4.80;;;36.40;99.90;;;;;;5070386;28;20431;-57
2022/07/09 09:57:41;;;;;;;8.88;6.30;;;37.00;99.90;;;;;;5069523;28;20420;-57
2022/07/09 10:00:08;;;;;;;7.10;6.40;;;36.60;99.90;;;;;;5070326;28;20437;-57
2022/07/09 10:02:35;;;;;;;8.80;5.63;;;36.10;99.90;;;;;;5071485;28;20470;-57
2022/07/09 10:05:01;;;;;;;8.48;6.03;;;35.60;99.90;;;;;;5090177;28;20382;-57
2022/07/09 10:07:29;;;;;;;12.18;5.55;;;35.10;99.90;;;;;;5079591;28;20452;-58
2022/07/09 10:09:59;;;;;;;7.97;4.78;;;34.00;99.90;;;;;;5073420;28;20920;-56
2022/07/09 10:12:34;;;;;;;7.10;5.50;;;32.70;99.90;;;;;;5073470;28;20398;-57
2022/07/09 10:15:00;;;;;;;6.90;5.63;;;31.60;99.90;;;;;;5071633;28;20472;-56
2022/07/09 10:17:27;;;;;;;8.30;6.40;;;31.60;99.90;;;;;;5076034;28;20948;-56
2022/07/09 10:20:06;;;;;;;7.30;5.20;;;32.50;99.90;;;;;;5072728;28;20390;-57
2022/07/09 10:22:36;;;;;;;6.80;5.00;;;34.30;99.90;;;;;;5080074;28;20402;-59
2022/07/09 10:25:01;;;;;;;8.70;4.80;;;34.60;99.90;;;;;;5082272;28;20419;-57
2022/07/09 10:27:27;;;;;;;6.95;6.00;;;33.50;99.90;;;;;;5076787;28;20452;-58
2022/07/09 10:29:55;;;;;;;7.63;6.00;;;31.30;99.90;;;;;;5074904;28;20864;-57
2022/07/09 10:32:29;;;;;;;7.90;5.20;;;30.30;99.90;;;;;;5065386;28;20615;-56
2022/07/09 10:35:06;;;;;;;7.00;5.60;;;30.50;99.90;;;;;;5062930;28;20405;-56
2022/07/09 10:37:32;;;;;;;6.53;5.20;;;31.50;99.90;;;;;;5069517;28;20818;-57
2022/07/09 10:40:15;;;;;;;8.80;5.80;;;31.40;99.90;;;;;;5070685;28;20487;-57
2022/07/09 10:42:43;;;;;;;6.60;5.10;;;31.20;99.90;;;;;;5069595;28;20435;-56
2022/07/09 10:45:18;;;;;;;7.30;5.35;;;31.10;99.90;;;;;;5088698;28;20476;-56
2022/07/09 10:47:46;;;;;;;7.13;5.72;;;31.70;99.90;;;;;;5088881;28;20405;-56
2022/07/09 10:50:12;;;;;;;7.80;6.15;;;31.70;99.90;;;;;;5089275;28;20439;-56
2022/07/09 10:52:38;;;;;;;7.07;6.30;;;30.70;99.90;;;;;;5088297;28;20732;-56
2022/07/09 10:55:04;;;;;;;10.32;6.40;;;30.50;99.90;;;;;;5089454;28;20912;-56
2022/07/09 10:57:30;;;;;;;9.43;5.87;;;29.80;99.90;;;;;;5088581;28;20370;-58
2022/07/09 10:59:56;;;;;;;8.30;7.33;;;29.70;99.90;;;;;;5088297;28;20688;-56
2022/07/09 11:02:22;;;;;;;8.50;6.93;;;29.70;99.90;;;;;;5089043;28;20429;-56
2022/07/09 11:04:52;;;;;;;9.32;8.52;;;30.00;99.90;;;;;;5088140;28;20389;-56
2022/07/09 11:07:25;;;;;;;9.63;8.73;;;29.60;99.90;;;;;;5089270;28;21016;-57
2022/07/09 11:09:52;;;;;;;7.77;6.47;;;28.60;99.90;;;;;;5087964;28;20374;-56
2022/07/09 11:12:20;;;;;;;11.68;7.13;;;28.20;99.90;;;;;;5089129;28;20382;-56
2022/07/09 11:14:50;;;;;;;5.88;2.20;;;28.20;99.90;;;;;;5072771;28;20940;-56
2022/07/09 11:17:21;;;;;;;6.87;5.70;;;28.20;99.90;;;;;;5067525;28;20399;-56
2022/07/09 11:19:48;;;;;;;8.88;6.93;;;28.30;99.90;;;;;;5068182;28;20411;-56
2022/07/09 11:22:17;;;;;;;8.43;7.33;;;27.90;99.90;;;;;;5068843;28;20403;-56
2022/07/09 11:24:42;;;;;;;8.40;6.20;;;27.80;99.90;;;;;;5067588;28;20431;-56
2022/07/09 11:27:09;;;;;;;8.57;6.13;;;28.10;99.90;;;;;;5068216;28;20931;-57
2022/07/09 11:29:36;;;;;;;6.07;2.10;;;27.80;99.90;;;;;;5068076;28;20376;-56
2022/07/09 11:32:02;;;;;;;6.35;1.70;;;28.10;99.90;;;;;;5068841;28;20402;-56
2022/07/09 11:34:29;;;;;;;6.55;1.80;;;27.90;99.90;;;;;;5068359;28;20437;-58
2022/07/09 11:36:57;;;;;;;9.20;2.00;;;28.60;99.90;;;;;;5068495;28;20384;-56
2022/07/09 11:39:28;;;;;;;5.90;1.88;;;29.40;99.90;;;;;;5068646;28;20380;-56
2022/07/09 11:41:55;;;;;;;5.95;2.20;;;29.70;99.90;;;;;;5068146;28;20845;-56
2022/07/09 11:44:21;;;;;;;6.63;1.80;;;29.50;99.90;;;;;;5068796;28;20466;-56
2022/07/09 11:47:09;;;;;;;6.28;1.70;;;29.50;99.90;;;;;;5068177;28;20500;-56
2022/07/09 11:49:36;;;;;;;6.38;1.85;;;29.30;99.90;;;;;;5065973;28;20756;-56
2022/07/09 11:52:03;;;;;;;6.77;1.67;;;29.40;99.90;;;;;;5068543;28;20396;-55
2022/07/09 11:54:29;;;;;;;6.30;1.80;;;29.50;99.90;;;;;;5068170;28;20423;-57
2022/07/09 11:56:55;;;;;;;5.80;1.80;;;30.00;99.90;;;;;;5068217;28;20383;-55
2022/07/09 11:59:31;;;;;;;6.00;2.00;;;30.40;99.90;;;;;;5067009;28;20376;-55
2022/07/09 12:02:02;;;;;;;5.70;1.40;;;30.30;99.90;;;;;;5068288;28;20828;-59
2022/07/09 12:04:30;;;;;;;6.93;1.90;;;30.20;99.90;;;;;;5068397;28;20487;-55
2022/07/09 12:06:57;;;;;;;5.80;1.70;;;29.60;99.90;;;;;;5067699;28;20860;-55
2022/07/09 12:09:31;;;;;;;5.28;1.70;;;29.10;99.90;;;;;;5068170;28;20394;-55
2022/07/09 12:11:58;;;;;;;8.20;1.90;;;28.80;99.90;;;;;;5067130;28;20459;-56
2022/07/09 12:14:23;;;;;;;6.55;1.90;;;28.60;99.90;;;;;;5068216;28;20441;-56
2022/07/09 12:16:49;;;;;;;6.18;1.80;;;28.70;99.90;;;;;;5067767;28;20516;-56
2022/07/09 12:19:15;;;;;;;6.47;1.50;;;29.20;99.90;;;;;;5068482;28;20482;-56
2022/07/09 12:21:41;;;;;;;6.80;1.70;;;29.50;99.90;;;;;;5068186;28;20383;-56
2022/07/09 12:24:09;;;;;;;5.20;1.10;;;29.70;99.90;;;;;;5068381;28;20860;-56
2022/07/09 12:26:35;;;;;;;5.70;1.70;;;29.40;99.90;;;;;;5066992;28;20464;-57
2022/07/09 12:29:01;;;;;;;7.10;1.30;;;29.70;99.90;;;;;;5068457;28;20388;-56
2022/07/09 12:31:26;;;;;;;5.75;1.50;;;29.90;99.90;;;;;;5068038;28;20376;-56
2022/07/09 12:33:52;;;;;;;5.53;1.80;;;29.90;99.90;;;;;;5067491;28;20553;-57
2022/07/09 12:36:18;;;;;;;5.30;1.40;;;29.40;99.90;;;;;;5068113;28;20413;-56
2022/07/09 12:38:43;;;;;;;5.18;1.33;;;29.30;99.90;;;;;;5067334;28;20876;-56
2022/07/09 12:41:09;;;;;;;5.10;1.20;;;29.30;99.90;;;;;;5068140;28;20824;-56
2022/07/09 12:43:34;;;;;;;5.03;1.50;;;29.00;99.90;;;;;;5066926;28;20383;-56
2022/07/09 12:46:00;;;;;;;5.30;1.50;;;29.20;99.90;;;;;;5066601;28;20737;-56